sensor_id;sensor_type;location;lat;lon;timestamp;temperature;humidity
3017;DHT22;1518;52.408;13.060;2023-02-18T00:01:20;17.40;68.20
3017;DHT22;1518;52.408;13.060;2023-02-18T00:04:08;17.30;68.10
3017;DHT22;1518;52.408;13.060;2023-02-18T00:06:56;17.30;68.30
3017;DHT22;1518;52.408;13.060;2023-02-18T00:09:44;17.20;67.90
3017;DHT22;1518;52.408;13.060;2023-02-18T00:12:32;17.20;68.10
3017;DHT22;1518;52.408;13.060;2023-02-18T00:15:20;17.20;67.70
3017;DHT22;1518;52.408;13.060;2023-02-18T00:18:09;17.20;68.70
3017;DHT22;1518;52.408;13.060;2023-02-18T00:20:57;17.10;71.00
3017;DHT22;1518;52.408;13.060;2023-02-18T00:23:45;17.20;71.20
3017;DHT22;1518;52.408;13.060;2023-02-18T00:26:34;17.20;71.10
3017;DHT22;1518;52.408;13.060;2023-02-18T00:29:22;17.20;70.70
3017;DHT22;1518;52.408;13.060;2023-02-18T00:32:10;17.20;71.40
3017;DHT22;1518;52.408;13.060;2023-02-18T00:34:59;17.30;70.50
3017;DHT22;1518;52.408;13.060;2023-02-18T00:37:50;17.30;71.00
3017;DHT22;1518;52.408;13.060;2023-02-18T00:40:38;17.30;70.40
3017;DHT22;1518;52.408;13.060;2023-02-18T00:43:27;17.30;70.60
3017;DHT22;1518;52.408;13.060;2023-02-18T00:46:16;17.40;70.50
3017;DHT22;1518;52.408;13.060;2023-02-18T00:49:04;17.30;70.20
3017;DHT22;1518;52.408;13.060;2023-02-18T00:51:54;17.40;69.70
3017;DHT22;1518;52.408;13.060;2023-02-18T00:54:42;17.50;68.10
3017;DHT22;1518;52.408;13.060;2023-02-18T00:57:30;17.40;67.90
3017;DHT22;1518;52.408;13.060;2023-02-18T01:00:18;17.40;67.90
3017;DHT22;1518;52.408;13.060;2023-02-18T01:03:08;17.30;67.60
3017;DHT22;1518;52.408;13.060;2023-02-18T01:05:56;17.40;67.70
3017;DHT22;1518;52.408;13.060;2023-02-18T01:08:45;17.30;67.90
3017;DHT22;1518;52.408;13.060;2023-02-18T01:11:33;17.20;83.50
3017;DHT22;1518;52.408;13.060;2023-02-18T01:14:21;17.20;67.70
3017;DHT22;1518;52.408;13.060;2023-02-18T01:17:09;17.30;67.90
3017;DHT22;1518;52.408;13.060;2023-02-18T01:19:58;17.20;68.00
3017;DHT22;1518;52.408;13.060;2023-02-18T01:22:47;17.10;67.70
3017;DHT22;1518;52.408;13.060;2023-02-18T01:25:37;16.30;67.70
3017;DHT22;1518;52.408;13.060;2023-02-18T01:28:25;17.30;68.00
3017;DHT22;1518;52.408;13.060;2023-02-18T01:31:13;17.30;68.20
3017;DHT22;1518;52.408;13.060;2023-02-18T01:34:02;17.00;69.70
3017;DHT22;1518;52.408;13.060;2023-02-18T01:36:50;17.10;70.30
3017;DHT22;1518;52.408;13.060;2023-02-18T01:39:38;17.10;70.50
3017;DHT22;1518;52.408;13.060;2023-02-18T01:42:28;17.20;70.50
3017;DHT22;1518;52.408;13.060;2023-02-18T01:46:02;17.10;70.20
3017;DHT22;1518;52.408;13.060;2023-02-18T01:48:54;17.20;68.80
3017;DHT22;1518;52.408;13.060;2023-02-18T01:51:46;17.40;90.40
3017;DHT22;1518;52.408;13.060;2023-02-18T01:54:38;17.20;69.40
3017;DHT22;1518;52.408;13.060;2023-02-18T01:57:30;17.30;68.00
3017;DHT22;1518;52.408;13.060;2023-02-18T02:00:19;17.20;67.60
3017;DHT22;1518;52.408;13.060;2023-02-18T02:03:08;17.20;67.70
3017;DHT22;1518;52.408;13.060;2023-02-18T02:05:56;17.20;67.70
3017;DHT22;1518;52.408;13.060;2023-02-18T02:08:46;17.20;67.60
3017;DHT22;1518;52.408;13.060;2023-02-18T02:11:50;17.20;87.40
3017;DHT22;1518;52.408;13.060;2023-02-18T02:15:05;17.10;66.40
3017;DHT22;1518;52.408;13.060;2023-02-18T02:18:08;17.10;67.30
3017;DHT22;1518;52.408;13.060;2023-02-18T02:21:25;17.00;67.50
3017;DHT22;1518;52.408;13.060;2023-02-18T02:25:02;17.00;67.40
3017;DHT22;1518;52.408;13.060;2023-02-18T02:28:18;17.00;67.50
3017;DHT22;1518;52.408;13.060;2023-02-18T02:31:25;16.40;67.00
3017;DHT22;1518;52.408;13.060;2023-02-18T02:34:36;16.90;67.90
3017;DHT22;1518;52.408;13.060;2023-02-18T02:37:34;16.80;69.90
3017;DHT22;1518;52.408;13.060;2023-02-18T02:40:28;16.80;70.00
3017;DHT22;1518;52.408;13.060;2023-02-18T02:43:26;16.90;70.00
3017;DHT22;1518;52.408;13.060;2023-02-18T02:46:22;17.00;70.20
3017;DHT22;1518;52.408;13.060;2023-02-18T02:49:23;17.10;70.00
3017;DHT22;1518;52.408;13.060;2023-02-18T02:52:18;17.10;69.80
3017;DHT22;1518;52.408;13.060;2023-02-18T02:55:08;17.10;69.60
3017;DHT22;1518;52.408;13.060;2023-02-18T02:57:57;17.20;69.60
3017;DHT22;1518;52.408;13.060;2023-02-18T03:00:57;17.20;69.70
3017;DHT22;1518;52.408;13.060;2023-02-18T03:04:08;17.20;69.30
3017;DHT22;1518;52.408;13.060;2023-02-18T03:07:18;17.20;69.40
3017;DHT22;1518;52.408;13.060;2023-02-18T03:10:19;17.30;69.40
3017;DHT22;1518;52.408;13.060;2023-02-18T03:13:17;17.40;67.20
3017;DHT22;1518;52.408;13.060;2023-02-18T03:16:14;17.40;67.30
3017;DHT22;1518;52.408;13.060;2023-02-18T03:19:09;17.40;66.10
3017;DHT22;1518;52.408;13.060;2023-02-18T03:22:02;17.20;65.60
3017;DHT22;1518;52.408;13.060;2023-02-18T03:24:55;17.30;66.10
3017;DHT22;1518;52.408;13.060;2023-02-18T03:27:48;17.20;65.70
3017;DHT22;1518;52.408;13.060;2023-02-18T03:30:41;17.30;65.90
3017;DHT22;1518;52.408;13.060;2023-02-18T03:33:34;17.20;65.60
3017;DHT22;1518;52.408;13.060;2023-02-18T03:36:24;17.20;66.40
3017;DHT22;1518;52.408;13.060;2023-02-18T03:39:14;17.20;66.00
3017;DHT22;1518;52.408;13.060;2023-02-18T03:42:04;17.20;66.30
3017;DHT22;1518;52.408;13.060;2023-02-18T03:44:53;17.20;66.40
3017;DHT22;1518;52.408;13.060;2023-02-18T03:47:41;17.10;66.10
3017;DHT22;1518;52.408;13.060;2023-02-18T03:50:29;17.10;66.00
3017;DHT22;1518;52.408;13.060;2023-02-18T03:53:17;17.00;66.40
3017;DHT22;1518;52.408;13.060;2023-02-18T03:56:06;17.00;66.70
3017;DHT22;1518;52.408;13.060;2023-02-18T03:58:56;16.90;69.00
3017;DHT22;1518;52.408;13.060;2023-02-18T04:01:44;16.90;69.50
3017;DHT22;1518;52.408;13.060;2023-02-18T04:04:32;17.00;69.60
3017;DHT22;1518;52.408;13.060;2023-02-18T04:07:20;17.00;69.40
3017;DHT22;1518;52.408;13.060;2023-02-18T04:10:08;17.00;69.30
3017;DHT22;1518;52.408;13.060;2023-02-18T04:12:57;17.10;69.30
3017;DHT22;1518;52.408;13.060;2023-02-18T04:15:48;17.10;69.30
3017;DHT22;1518;52.408;13.060;2023-02-18T04:18:36;17.10;69.20
3017;DHT22;1518;52.408;13.060;2023-02-18T04:21:24;17.10;69.10
3017;DHT22;1518;52.408;13.060;2023-02-18T04:24:12;17.20;68.70
3017;DHT22;1518;52.408;13.060;2023-02-18T04:27:01;17.30;67.60
3017;DHT22;1518;52.408;13.060;2023-02-18T04:29:49;17.30;67.20
3017;DHT22;1518;52.408;13.060;2023-02-18T04:32:39;17.20;86.50
3017;DHT22;1518;52.408;13.060;2023-02-18T04:35:27;17.30;66.10
3017;DHT22;1518;52.408;13.060;2023-02-18T04:38:15;17.30;66.10
3017;DHT22;1518;52.408;13.060;2023-02-18T04:41:03;17.30;66.30
3017;DHT22;1518;52.408;13.060;2023-02-18T04:43:51;17.30;66.20
3017;DHT22;1518;52.408;13.060;2023-02-18T04:46:39;17.30;66.40
3017;DHT22;1518;52.408;13.060;2023-02-18T04:49:29;17.10;66.00
3017;DHT22;1518;52.408;13.060;2023-02-18T04:52:17;17.20;66.30
3017;DHT22;1518;52.408;13.060;2023-02-18T04:55:06;17.10;66.20
3017;DHT22;1518;52.408;13.060;2023-02-18T04:57:54;17.10;65.90
3017;DHT22;1518;52.408;13.060;2023-02-18T05:00:42;17.20;66.30
3017;DHT22;1518;52.408;13.060;2023-02-18T05:03:31;17.10;66.00
3017;DHT22;1518;52.408;13.060;2023-02-18T05:06:20;17.10;66.70
3017;DHT22;1518;52.408;13.060;2023-02-18T05:09:08;17.00;67.00
3017;DHT22;1518;52.408;13.060;2023-02-18T05:11:56;17.00;68.80
3017;DHT22;1518;52.408;13.060;2023-02-18T05:14:45;17.00;68.90
3017;DHT22;1518;52.408;13.060;2023-02-18T05:17:33;17.00;69.10
3017;DHT22;1518;52.408;13.060;2023-02-18T05:20:21;17.10;69.30
3017;DHT22;1518;52.408;13.060;2023-02-18T05:23:10;17.20;69.20
3017;DHT22;1518;52.408;13.060;2023-02-18T05:25:59;17.20;68.90
3017;DHT22;1518;52.408;13.060;2023-02-18T05:28:47;17.20;68.60
3017;DHT22;1518;52.408;13.060;2023-02-18T05:31:35;17.30;68.90
3017;DHT22;1518;52.408;13.060;2023-02-18T05:34:24;17.30;68.50
3017;DHT22;1518;52.408;13.060;2023-02-18T05:37:12;17.40;68.60
3017;DHT22;1518;52.408;13.060;2023-02-18T05:40:01;17.40;68.50
3017;DHT22;1518;52.408;13.060;2023-02-18T05:42:50;17.50;89.40
3017;DHT22;1518;52.408;13.060;2023-02-18T05:45:38;17.50;68.50
3017;DHT22;1518;52.408;13.060;2023-02-18T05:48:26;17.50;68.40
3017;DHT22;1518;52.408;13.060;2023-02-18T05:51:14;17.50;68.40
3017;DHT22;1518;52.408;13.060;2023-02-18T05:54:02;17.50;68.10
3017;DHT22;1518;52.408;13.060;2023-02-18T05:56:52;17.60;68.20
3017;DHT22;1518;52.408;13.060;2023-02-18T05:59:41;17.60;67.90
3017;DHT22;1518;52.408;13.060;2023-02-18T06:02:29;17.60;66.90
3017;DHT22;1518;52.408;13.060;2023-02-18T06:05:17;17.60;66.90
3017;DHT22;1518;52.408;13.060;2023-02-18T06:08:05;17.70;81.60
3017;DHT22;1518;52.408;13.060;2023-02-18T06:10:53;17.60;66.00
3017;DHT22;1518;52.408;13.060;2023-02-18T06:13:42;17.50;65.90
3017;DHT22;1518;52.408;13.060;2023-02-18T06:16:31;17.50;66.40
3017;DHT22;1518;52.408;13.060;2023-02-18T06:19:19;17.50;65.90
3017;DHT22;1518;52.408;13.060;2023-02-18T06:22:07;18.70;67.20
3017;DHT22;1518;52.408;13.060;2023-02-18T06:24:55;18.50;67.00
3017;DHT22;1518;52.408;13.060;2023-02-18T06:27:43;17.40;65.90
3017;DHT22;1518;52.408;13.060;2023-02-18T06:30:32;17.30;66.30
3017;DHT22;1518;52.408;13.060;2023-02-18T06:33:21;17.30;66.80
3017;DHT22;1518;52.408;13.060;2023-02-18T06:36:10;17.30;66.50
3017;DHT22;1518;52.408;13.060;2023-02-18T06:39:02;17.20;67.30
3017;DHT22;1518;52.408;13.060;2023-02-18T06:41:50;17.20;68.30
3017;DHT22;1518;52.408;13.060;2023-02-18T06:44:38;17.20;68.30
3017;DHT22;1518;52.408;13.060;2023-02-18T06:47:27;17.20;68.50
3017;DHT22;1518;52.408;13.060;2023-02-18T06:50:16;17.20;68.80
3017;DHT22;1518;52.408;13.060;2023-02-18T06:53:05;17.20;68.70
3017;DHT22;1518;52.408;13.060;2023-02-18T06:55:53;17.20;68.50
3017;DHT22;1518;52.408;13.060;2023-02-18T06:58:41;17.30;68.60
3017;DHT22;1518;52.408;13.060;2023-02-18T07:01:29;17.30;68.50
3017;DHT22;1518;52.408;13.060;2023-02-18T07:04:19;17.30;68.40
3017;DHT22;1518;52.408;13.060;2023-02-18T07:07:07;17.30;68.50
3017;DHT22;1518;52.408;13.060;2023-02-18T07:09:55;17.30;68.60
3017;DHT22;1518;52.408;13.060;2023-02-18T07:12:43;17.50;86.40
3017;DHT22;1518;52.408;13.060;2023-02-18T07:15:31;17.40;68.40
3017;DHT22;1518;52.408;13.060;2023-02-18T07:18:19;17.40;68.20
3017;DHT22;1518;52.408;13.060;2023-02-18T07:21:09;17.40;67.30
3017;DHT22;1518;52.408;13.060;2023-02-18T07:23:57;17.40;67.40
3017;DHT22;1518;52.408;13.060;2023-02-18T07:26:45;17.50;66.70
3017;DHT22;1518;52.408;13.060;2023-02-18T07:29:33;17.40;66.60
3017;DHT22;1518;52.408;13.060;2023-02-18T07:32:22;17.40;66.70
3017;DHT22;1518;52.408;13.060;2023-02-18T07:35:13;17.40;67.30
3017;DHT22;1518;52.408;13.060;2023-02-18T07:38:02;17.40;67.20
3017;DHT22;1518;52.408;13.060;2023-02-18T07:40:51;17.40;67.50
3017;DHT22;1518;52.408;13.060;2023-02-18T07:43:39;17.40;67.00
3017;DHT22;1518;52.408;13.060;2023-02-18T07:46:27;17.30;67.60
3017;DHT22;1518;52.408;13.060;2023-02-18T07:49:15;17.30;67.70
3017;DHT22;1518;52.408;13.060;2023-02-18T07:52:03;17.30;67.90
3017;DHT22;1518;52.408;13.060;2023-02-18T07:54:53;17.30;68.10
3017;DHT22;1518;52.408;13.060;2023-02-18T07:57:41;17.20;68.80
3017;DHT22;1518;52.408;13.060;2023-02-18T08:00:36;17.20;68.70
3017;DHT22;1518;52.408;13.060;2023-02-18T08:03:26;17.10;68.90
3017;DHT22;1518;52.408;13.060;2023-02-18T08:06:20;17.20;69.10
3017;DHT22;1518;52.408;13.060;2023-02-18T08:09:08;17.30;69.10
3017;DHT22;1518;52.408;13.060;2023-02-18T08:11:56;17.20;69.00
3017;DHT22;1518;52.408;13.060;2023-02-18T08:14:44;17.20;69.00
3017;DHT22;1518;52.408;13.060;2023-02-18T08:17:34;17.20;68.90
3017;DHT22;1518;52.408;13.060;2023-02-18T08:20:22;17.30;69.00
3017;DHT22;1518;52.408;13.060;2023-02-18T08:23:10;17.30;68.90
3017;DHT22;1518;52.408;13.060;2023-02-18T08:25:58;17.40;69.00
3017;DHT22;1518;52.408;13.060;2023-02-18T08:28:47;17.30;68.90
3017;DHT22;1518;52.408;13.060;2023-02-18T08:31:35;17.40;89.40
3017;DHT22;1518;52.408;13.060;2023-02-18T08:34:24;17.40;68.70
3017;DHT22;1518;52.408;13.060;2023-02-18T08:37:13;17.50;68.60
3017;DHT22;1518;52.408;13.060;2023-02-18T08:40:01;17.60;68.50
3017;DHT22;1518;52.408;13.060;2023-02-18T08:42:50;17.50;68.20
3017;DHT22;1518;52.408;13.060;2023-02-18T08:45:38;17.60;68.30
3017;DHT22;1518;52.408;13.060;2023-02-18T08:48:27;17.60;68.20
3017;DHT22;1518;52.408;13.060;2023-02-18T08:51:19;17.70;68.40
3017;DHT22;1518;52.408;13.060;2023-02-18T08:54:07;17.70;68.30
3017;DHT22;1518;52.408;13.060;2023-02-18T08:56:56;17.60;68.40
3017;DHT22;1518;52.408;13.060;2023-02-18T08:59:44;17.50;68.20
3017;DHT22;1518;52.408;13.060;2023-02-18T09:02:33;17.50;68.30
3017;DHT22;1518;52.408;13.060;2023-02-18T09:05:21;17.50;68.50
3017;DHT22;1518;52.408;13.060;2023-02-18T09:08:10;17.50;68.60
3017;DHT22;1518;52.408;13.060;2023-02-18T09:11:00;17.40;68.70
3017;DHT22;1518;52.408;13.060;2023-02-18T09:13:50;17.40;68.80
3017;DHT22;1518;52.408;13.060;2023-02-18T09:16:38;17.40;69.00
3017;DHT22;1518;52.408;13.060;2023-02-18T09:19:26;17.40;69.20
3017;DHT22;1518;52.408;13.060;2023-02-18T09:22:14;17.30;69.20
3017;DHT22;1518;52.408;13.060;2023-02-18T09:25:04;17.20;69.10
3017;DHT22;1518;52.408;13.060;2023-02-18T09:27:53;17.30;69.20
3017;DHT22;1518;52.408;13.060;2023-02-18T09:30:41;17.40;69.40
3017;DHT22;1518;52.408;13.060;2023-02-18T09:33:29;17.30;69.10
3017;DHT22;1518;52.408;13.060;2023-02-18T09:36:18;17.40;69.20
3017;DHT22;1518;52.408;13.060;2023-02-18T09:39:06;17.40;69.10
3017;DHT22;1518;52.408;13.060;2023-02-18T09:41:57;17.40;69.10
3017;DHT22;1518;52.408;13.060;2023-02-18T09:44:49;17.50;69.10
3017;DHT22;1518;52.408;13.060;2023-02-18T09:47:40;17.50;69.10
3017;DHT22;1518;52.408;13.060;2023-02-18T09:50:31;17.50;69.00
3017;DHT22;1518;52.408;13.060;2023-02-18T09:53:20;17.60;69.10
3017;DHT22;1518;52.408;13.060;2023-02-18T09:56:11;17.60;69.10
3017;DHT22;1518;52.408;13.060;2023-02-18T09:59:04;17.60;69.10
3017;DHT22;1518;52.408;13.060;2023-02-18T10:01:56;17.70;69.00
3017;DHT22;1518;52.408;13.060;2023-02-18T10:04:47;17.70;68.80
3017;DHT22;1518;52.408;13.060;2023-02-18T10:07:38;17.70;69.00
3017;DHT22;1518;52.408;13.060;2023-02-18T10:10:36;17.80;69.00
3017;DHT22;1518;52.408;13.060;2023-02-18T10:13:29;17.70;69.00
3017;DHT22;1518;52.408;13.060;2023-02-18T10:16:19;17.70;69.10
3017;DHT22;1518;52.408;13.060;2023-02-18T10:19:18;17.70;69.10
3017;DHT22;1518;52.408;13.060;2023-02-18T10:22:08;17.70;69.40
3017;DHT22;1518;52.408;13.060;2023-02-18T10:25:02;17.70;69.60
3017;DHT22;1518;52.408;13.060;2023-02-18T10:27:52;18.70;70.60
3017;DHT22;1518;52.408;13.060;2023-02-18T10:30:42;17.70;69.60
3017;DHT22;1518;52.408;13.060;2023-02-18T10:33:35;17.60;69.60
3017;DHT22;1518;52.408;13.060;2023-02-18T10:36:24;17.60;69.80
3017;DHT22;1518;52.408;13.060;2023-02-18T10:39:32;17.50;69.60
3017;DHT22;1518;52.408;13.060;2023-02-18T10:42:31;17.40;69.40
3017;DHT22;1518;52.408;13.060;2023-02-18T10:45:30;17.40;69.50
3017;DHT22;1518;52.408;13.060;2023-02-18T10:48:35;17.30;69.60
3017;DHT22;1518;52.408;13.060;2023-02-18T10:51:28;17.40;69.70
3017;DHT22;1518;52.408;13.060;2023-02-18T10:54:23;17.40;69.70
3017;DHT22;1518;52.408;13.060;2023-02-18T10:57:17;17.50;69.80
3017;DHT22;1518;52.408;13.060;2023-02-18T11:00:16;17.40;69.50
3017;DHT22;1518;52.408;13.060;2023-02-18T11:03:13;17.50;70.30
3017;DHT22;1518;52.408;13.060;2023-02-18T11:06:05;17.60;69.60
3017;DHT22;1518;52.408;13.060;2023-02-18T11:08:55;17.60;69.50
3017;DHT22;1518;52.408;13.060;2023-02-18T11:11:44;17.50;89.10
3017;DHT22;1518;52.408;13.060;2023-02-18T11:14:41;17.70;69.50
3017;DHT22;1518;52.408;13.060;2023-02-18T11:17:32;17.70;69.40
3017;DHT22;1518;52.408;13.060;2023-02-18T11:20:28;17.80;69.40
3017;DHT22;1518;52.408;13.060;2023-02-18T11:23:20;17.80;69.30
3017;DHT22;1518;52.408;13.060;2023-02-18T11:26:13;17.80;69.40
3017;DHT22;1518;52.408;13.060;2023-02-18T11:29:06;17.80;69.30
3017;DHT22;1518;52.408;13.060;2023-02-18T11:31:56;17.80;69.30
3017;DHT22;1518;52.408;13.060;2023-02-18T11:34:44;17.80;69.40
3017;DHT22;1518;52.408;13.060;2023-02-18T11:37:34;17.80;69.40
3017;DHT22;1518;52.408;13.060;2023-02-18T11:40:28;17.80;69.30
3017;DHT22;1518;52.408;13.060;2023-02-18T11:43:18;17.90;69.40
3017;DHT22;1518;52.408;13.060;2023-02-18T11:46:08;17.90;70.10
3017;DHT22;1518;52.408;13.060;2023-02-18T11:49:10;17.90;70.10
3017;DHT22;1518;52.408;13.060;2023-02-18T11:52:15;17.80;69.60
3017;DHT22;1518;52.408;13.060;2023-02-18T11:55:06;17.80;70.90
3017;DHT22;1518;52.408;13.060;2023-02-18T11:57:58;17.80;71.00
3017;DHT22;1518;52.408;13.060;2023-02-18T12:00:48;17.70;70.50
3017;DHT22;1518;52.408;13.060;2023-02-18T12:03:41;17.70;70.30
3017;DHT22;1518;52.408;13.060;2023-02-18T12:06:33;17.70;70.70
3017;DHT22;1518;52.408;13.060;2023-02-18T12:09:26;17.70;70.90
3017;DHT22;1518;52.408;13.060;2023-02-18T12:12:19;17.70;71.10
3017;DHT22;1518;52.408;13.060;2023-02-18T12:15:17;17.70;71.30
3017;DHT22;1518;52.408;13.060;2023-02-18T12:18:24;17.60;70.90
3017;DHT22;1518;52.408;13.060;2023-02-18T12:21:34;17.60;71.80
3017;DHT22;1518;52.408;13.060;2023-02-18T12:24:35;17.50;71.00
3017;DHT22;1518;52.408;13.060;2023-02-18T12:27:31;17.40;70.80
3017;DHT22;1518;52.408;13.060;2023-02-18T12:30:47;17.40;71.50
3017;DHT22;1518;52.408;13.060;2023-02-18T12:33:49;17.40;71.40
3017;DHT22;1518;52.408;13.060;2023-02-18T12:36:50;17.40;71.00
3017;DHT22;1518;52.408;13.060;2023-02-18T12:39:55;17.50;71.60
3017;DHT22;1518;52.408;13.060;2023-02-18T12:42:51;17.50;71.30
3017;DHT22;1518;52.408;13.060;2023-02-18T12:45:55;17.60;71.10
3017;DHT22;1518;52.408;13.060;2023-02-18T12:49:00;17.60;71.20
3017;DHT22;1518;52.408;13.060;2023-02-18T12:51:59;17.70;71.10
3017;DHT22;1518;52.408;13.060;2023-02-18T12:55:00;17.70;71.40
3017;DHT22;1518;52.408;13.060;2023-02-18T12:57:57;17.70;71.10
3017;DHT22;1518;52.408;13.060;2023-02-18T13:01:18;17.70;71.80
3017;DHT22;1518;52.408;13.060;2023-02-18T13:04:20;17.70;71.90
3017;DHT22;1518;52.408;13.060;2023-02-18T13:07:35;17.80;71.60
3017;DHT22;1518;52.408;13.060;2023-02-18T13:10:46;17.80;72.00
3017;DHT22;1518;52.408;13.060;2023-02-18T13:13:40;17.80;71.50
3017;DHT22;1518;52.408;13.060;2023-02-18T13:16:32;17.80;71.30
3017;DHT22;1518;52.408;13.060;2023-02-18T13:19:23;17.90;71.70
3017;DHT22;1518;52.408;13.060;2023-02-18T13:22:14;17.90;71.80
3017;DHT22;1518;52.408;13.060;2023-02-18T13:25:03;17.90;71.60
3017;DHT22;1518;52.408;13.060;2023-02-18T13:27:57;18.00;72.10
3017;DHT22;1518;52.408;13.060;2023-02-18T13:31:04;18.00;72.50
3017;DHT22;1518;52.408;13.060;2023-02-18T13:34:01;18.00;73.90
3017;DHT22;1518;52.408;13.060;2023-02-18T13:36:57;18.00;74.40
3017;DHT22;1518;52.408;13.060;2023-02-18T13:39:50;17.90;73.00
3017;DHT22;1518;52.408;13.060;2023-02-18T13:42:39;17.90;74.60
3017;DHT22;1518;52.408;13.060;2023-02-18T13:45:29;17.90;74.40
3017;DHT22;1518;52.408;13.060;2023-02-18T13:48:25;17.80;74.20
3017;DHT22;1518;52.408;13.060;2023-02-18T13:51:17;17.80;74.50
3017;DHT22;1518;52.408;13.060;2023-02-18T13:54:19;17.70;73.40
3017;DHT22;1518;52.408;13.060;2023-02-18T13:57:13;17.60;73.00
3017;DHT22;1518;52.408;13.060;2023-02-18T14:00:05;17.70;74.80
3017;DHT22;1518;52.408;13.060;2023-02-18T14:03:20;17.60;72.70
3017;DHT22;1518;52.408;13.060;2023-02-18T14:06:16;17.60;73.70
3017;DHT22;1518;52.408;13.060;2023-02-18T14:09:34;17.50;73.20
3017;DHT22;1518;52.408;13.060;2023-02-18T14:12:35;17.50;73.80
3017;DHT22;1518;52.408;13.060;2023-02-18T14:15:57;17.60;73.80
3017;DHT22;1518;52.408;13.060;2023-02-18T14:18:58;17.60;73.20
3017;DHT22;1518;52.408;13.060;2023-02-18T14:21:48;17.60;73.50
3017;DHT22;1518;52.408;13.060;2023-02-18T14:24:46;17.60;73.00
3017;DHT22;1518;52.408;13.060;2023-02-18T14:27:35;17.60;73.70
3017;DHT22;1518;52.408;13.060;2023-02-18T14:30:25;17.60;74.10
3017;DHT22;1518;52.408;13.060;2023-02-18T14:33:18;17.70;73.50
3017;DHT22;1518;52.408;13.060;2023-02-18T14:36:12;17.70;73.50
3017;DHT22;1518;52.408;13.060;2023-02-18T14:39:10;17.60;73.00
3017;DHT22;1518;52.408;13.060;2023-02-18T14:42:15;17.60;92.30
3017;DHT22;1518;52.408;13.060;2023-02-18T14:45:15;17.80;73.50
3017;DHT22;1518;52.408;13.060;2023-02-18T14:48:26;17.80;73.30
3017;DHT22;1518;52.408;13.060;2023-02-18T14:51:22;17.80;75.00
3017;DHT22;1518;52.408;13.060;2023-02-18T14:54:16;17.80;74.70
3017;DHT22;1518;52.408;13.060;2023-02-18T14:57:08;17.80;74.20
3017;DHT22;1518;52.408;13.060;2023-02-18T14:59:59;17.80;74.90
3017;DHT22;1518;52.408;13.060;2023-02-18T15:02:49;17.80;75.00
3017;DHT22;1518;52.408;13.060;2023-02-18T15:05:38;17.80;74.90
3017;DHT22;1518;52.408;13.060;2023-02-18T15:08:36;17.70;74.70
3017;DHT22;1518;52.408;13.060;2023-02-18T15:11:34;17.70;75.80
3017;DHT22;1518;52.408;13.060;2023-02-18T15:14:25;17.70;76.10
3017;DHT22;1518;52.408;13.060;2023-02-18T15:17:16;17.70;75.50
3017;DHT22;1518;52.408;13.060;2023-02-18T15:20:06;17.70;75.80
3017;DHT22;1518;52.408;13.060;2023-02-18T15:22:54;17.70;76.00
3017;DHT22;1518;52.408;13.060;2023-02-18T15:25:45;17.60;74.90
3017;DHT22;1518;52.408;13.060;2023-02-18T15:28:41;17.60;75.00
3017;DHT22;1518;52.408;13.060;2023-02-18T15:31:34;17.50;74.40
3017;DHT22;1518;52.408;13.060;2023-02-18T15:34:35;17.50;74.60
3017;DHT22;1518;52.408;13.060;2023-02-18T15:37:24;17.50;75.60
3017;DHT22;1518;52.408;13.060;2023-02-18T15:40:13;17.40;75.00
3017;DHT22;1518;52.408;13.060;2023-02-18T15:43:03;17.50;75.00
3017;DHT22;1518;52.408;13.060;2023-02-18T15:45:55;17.50;74.70
3017;DHT22;1518;52.408;13.060;2023-02-18T15:48:46;17.50;75.20
3017;DHT22;1518;52.408;13.060;2023-02-18T15:51:35;17.50;75.10
3017;DHT22;1518;52.408;13.060;2023-02-18T15:54:23;17.60;74.60
3017;DHT22;1518;52.408;13.060;2023-02-18T15:57:13;17.60;75.70
3017;DHT22;1518;52.408;13.060;2023-02-18T16:00:05;17.60;74.80
3017;DHT22;1518;52.408;13.060;2023-02-18T16:03:04;17.60;74.90
3017;DHT22;1518;52.408;13.060;2023-02-18T16:06:15;17.70;74.90
3017;DHT22;1518;52.408;13.060;2023-02-18T16:09:11;17.70;75.20
3017;DHT22;1518;52.408;13.060;2023-02-18T16:12:02;17.70;92.80
3017;DHT22;1518;52.408;13.060;2023-02-18T16:14:53;17.70;75.90
3017;DHT22;1518;52.408;13.060;2023-02-18T16:17:43;17.70;75.40
3017;DHT22;1518;52.408;13.060;2023-02-18T16:20:34;17.70;75.80
3017;DHT22;1518;52.408;13.060;2023-02-18T16:23:29;17.70;75.50
3017;DHT22;1518;52.408;13.060;2023-02-18T16:26:22;17.70;76.10
3017;DHT22;1518;52.408;13.060;2023-02-18T16:29:15;17.60;76.20
3017;DHT22;1518;52.408;13.060;2023-02-18T16:32:08;17.60;93.50
3017;DHT22;1518;52.408;13.060;2023-02-18T16:34:56;17.60;76.80
3017;DHT22;1518;52.408;13.060;2023-02-18T16:37:45;17.60;76.60
3017;DHT22;1518;52.408;13.060;2023-02-18T16:40:37;17.50;76.20
3017;DHT22;1518;52.408;13.060;2023-02-18T16:43:28;17.50;75.40
3017;DHT22;1518;52.408;13.060;2023-02-18T16:46:21;17.50;75.00
3017;DHT22;1518;52.408;13.060;2023-02-18T16:49:11;17.40;75.20
3017;DHT22;1518;52.408;13.060;2023-02-18T16:52:01;17.40;92.50
3017;DHT22;1518;52.408;13.060;2023-02-18T16:54:54;17.40;75.60
3017;DHT22;1518;52.408;13.060;2023-02-18T16:57:42;17.40;75.40
3017;DHT22;1518;52.408;13.060;2023-02-18T17:00:30;17.40;75.50
3017;DHT22;1518;52.408;13.060;2023-02-18T17:03:19;17.50;75.00
3017;DHT22;1518;52.408;13.060;2023-02-18T17:06:07;17.50;75.10
3017;DHT22;1518;52.408;13.060;2023-02-18T17:08:55;17.50;75.10
3017;DHT22;1518;52.408;13.060;2023-02-18T17:11:47;17.60;75.50
3017;DHT22;1518;52.408;13.060;2023-02-18T17:14:35;17.60;75.40
3017;DHT22;1518;52.408;13.060;2023-02-18T17:17:24;17.70;75.20
3017;DHT22;1518;52.408;13.060;2023-02-18T17:20:13;17.70;75.20
3017;DHT22;1518;52.408;13.060;2023-02-18T17:23:02;17.80;74.90
3017;DHT22;1518;52.408;13.060;2023-02-18T17:25:51;17.80;75.00
3017;DHT22;1518;52.408;13.060;2023-02-18T17:28:40;17.80;74.60
3017;DHT22;1518;52.408;13.060;2023-02-18T17:31:30;17.90;74.80
3017;DHT22;1518;52.408;13.060;2023-02-18T17:34:23;17.90;75.50
3017;DHT22;1518;52.408;13.060;2023-02-18T17:37:12;17.80;75.20
3017;DHT22;1518;52.408;13.060;2023-02-18T17:40:00;17.90;76.10
3017;DHT22;1518;52.408;13.060;2023-02-18T17:42:48;17.70;74.80
3017;DHT22;1518;52.408;13.060;2023-02-18T17:45:41;17.90;75.30
3017;DHT22;1518;52.408;13.060;2023-02-18T17:48:30;17.90;75.30
3017;DHT22;1518;52.408;13.060;2023-02-18T17:51:23;17.80;75.60
3017;DHT22;1518;52.408;13.060;2023-02-18T17:54:12;17.80;75.50
3017;DHT22;1518;52.408;13.060;2023-02-18T17:57:01;17.80;75.30
3017;DHT22;1518;52.408;13.060;2023-02-18T17:59:49;18.20;76.10
3017;DHT22;1518;52.408;13.060;2023-02-18T18:02:38;17.70;75.50
3017;DHT22;1518;52.408;13.060;2023-02-18T18:05:28;17.70;76.20
3017;DHT22;1518;52.408;13.060;2023-02-18T18:08:18;17.60;75.90
3017;DHT22;1518;52.408;13.060;2023-02-18T18:11:09;17.50;75.80
3017;DHT22;1518;52.408;13.060;2023-02-18T18:13:59;17.50;75.30
3017;DHT22;1518;52.408;13.060;2023-02-18T18:16:47;17.50;75.00
3017;DHT22;1518;52.408;13.060;2023-02-18T18:19:37;17.50;75.00
3017;DHT22;1518;52.408;13.060;2023-02-18T18:22:25;17.50;75.30
3017;DHT22;1518;52.408;13.060;2023-02-18T18:25:17;17.40;75.10